Time;durP1;ratioP1;P1;durP2;ratioP2;P2;SDS_P1;SDS_P2;PMS_P1;PMS_P2;Temp;Humidity;BMP_temperature;BMP_pressure;BME280_temperature;BME280_humidity;BME280_pressure;Samples;Min_cycle;Max_cycle;Signal;HPM_P1;HPM_P2
2021/09/25 00:01:42;;;;;;;18.45;5.45;;;;;;;11.94;76.65;99865.20;1694459;84;25510;-62
2021/09/25 00:04:08;;;;;;;21.20;5.80;;;;;;;12.00;76.88;99867.72;1706914;84;25997;-61
2021/09/25 00:09:20;;;;;;;21.42;5.37;;;;;;;12.15;77.04;99867.92;1821415;77;34770;-62
2021/09/25 00:11:47;;;;;;;19.57;5.72;;;;;;;12.11;77.01;99860.80;1782648;79;25365;-62
2021/09/25 00:14:13;;;;;;;24.50;5.30;;;;;;;12.14;76.95;99860.14;1782599;79;27563;-61
2021/09/25 00:16:41;;;;;;;19.60;5.42;;;;;;;12.17;76.98;99855.97;1760597;80;25444;-64
2021/09/25 00:19:08;;;;;;;15.88;6.17;;;;;;;12.19;77.03;99855.87;1782589;79;25529;-61
2021/09/25 00:21:35;;;;;;;17.60;5.05;;;;;;;12.22;77.26;99847.06;1782577;79;25535;-61
2021/09/25 00:24:01;;;;;;;24.65;6.45;;;;;;;12.24;77.52;99847.55;1782680;80;25568;-62
2021/09/25 00:26:27;;;;;;;21.35;5.90;;;;;;;12.30;77.65;99856.27;1782634;79;27450;-61
2021/09/25 00:28:55;;;;;;;18.45;5.15;;;;;;;12.35;77.84;99853.93;1760459;80;25900;-62
2021/09/25 00:31:22;;;;;;;20.02;5.53;;;;;;;12.39;77.76;99852.12;1782627;80;25381;-62
2021/09/25 00:33:49;;;;;;;18.25;5.87;;;;;;;12.42;77.76;99853.61;1782553;79;25618;-61
2021/09/25 00:36:16;;;;;;;17.42;5.33;;;;;;;12.45;78.06;99850.81;1782578;79;25439;-62
2021/09/25 00:38:42;;;;;;;13.70;4.75;;;;;;;12.48;78.08;99846.06;1760385;80;27179;-61
2021/09/25 00:41:09;;;;;;;18.40;5.15;;;;;;;12.50;78.22;99837.83;1782483;80;26282;-61
2021/09/25 00:43:35;;;;;;;21.82;5.58;;;;;;;12.51;78.50;99843.50;1782558;79;25487;-62
2021/09/25 00:46:02;;;;;;;15.08;5.53;;;;;;;12.55;78.30;99843.63;1782313;79;25608;-62
2021/09/25 00:48:28;;;;;;;19.27;5.30;;;;;;;12.58;78.75;99838.08;1781972;80;25376;-62
2021/09/25 00:50:56;;;;;;;21.85;5.80;;;;;;;12.60;78.61;99841.25;1782659;80;27485;-62
2021/09/25 00:53:23;;;;;;;20.75;5.17;;;;;;;12.63;78.58;99850.08;1782433;80;27388;-62
2021/09/25 00:55:49;;;;;;;17.90;4.95;;;;;;;12.64;78.77;99846.25;1782625;80;25400;-62
2021/09/25 00:58:17;;;;;;;20.32;5.37;;;;;;;12.65;78.57;99839.14;1782488;79;27352;-62
2021/09/25 01:00:44;;;;;;;17.92;6.30;;;;;;;12.67;78.71;99838.23;1782559;80;25598;-62
2021/09/25 01:03:10;;;;;;;20.88;5.87;;;;;;;12.68;78.86;99839.84;1782525;80;27560;-62
2021/09/25 01:05:41;;;;;;;22.32;6.22;;;;;;;12.69;78.81;99835.19;1782474;79;25441;-61
2021/09/25 01:08:06;;;;;;;13.30;5.78;;;;;;;12.70;78.88;99838.12;1760208;80;25647;-62
2021/09/25 01:10:32;;;;;;;15.93;5.72;;;;;;;12.71;79.20;99831.58;1782519;80;25581;-62
2021/09/25 01:12:59;;;;;;;18.65;6.70;;;;;;;12.73;79.07;99836.67;1782530;80;25583;-62
2021/09/25 01:15:26;;;;;;;16.20;5.92;;;;;;;12.74;79.30;99832.84;1760497;80;27496;-62
2021/09/25 01:17:52;;;;;;;17.20;6.03;;;;;;;12.75;79.53;99836.55;1782582;79;25546;-62
2021/09/25 01:20:19;;;;;;;17.35;5.67;;;;;;;12.77;79.72;99832.15;1782258;79;25604;-62
2021/09/25 01:22:45;;;;;;;19.52;6.03;;;;;;;12.79;79.51;99832.63;1782023;79;25549;-62
2021/09/25 01:25:13;;;;;;;15.25;6.15;;;;;;;12.81;79.70;99829.02;1781983;80;25371;-62
2021/09/25 01:27:41;;;;;;;16.65;6.03;;;;;;;12.81;79.84;99831.16;1781945;80;28135;-61
2021/09/25 01:30:12;;;;;;;9.75;5.12;;;;;;;12.84;80.23;99830.48;1781896;80;25443;-61
2021/09/25 01:32:39;;;;;;;15.85;5.62;;;;;;;12.86;79.99;99832.30;1735650;80;25573;-61
2021/09/25 01:35:09;;;;;;;15.85;5.47;;;;;;;12.88;80.14;99838.75;1781936;80;25523;-61
2021/09/25 01:37:37;;;;;;;14.35;5.10;;;;;;;12.91;80.16;99828.59;1760382;80;25458;-61
2021/09/25 01:40:06;;;;;;;13.00;5.90;;;;;;;12.93;80.12;99835.04;1781960;80;27687;-61
2021/09/25 01:42:34;;;;;;;19.87;6.17;;;;;;;12.96;80.22;99843.88;1781592;79;25717;-62
2021/09/25 01:45:00;;;;;;;15.65;6.33;;;;;;;12.96;80.32;99844.66;1759781;80;25453;-62
2021/09/25 01:47:27;;;;;;;16.97;6.20;;;;;;;12.99;80.60;99845.35;1781916;79;25451;-62
2021/09/25 01:49:54;;;;;;;17.85;6.28;;;;;;;12.99;80.51;99845.35;1781923;80;25381;-62
2021/09/25 01:52:20;;;;;;;13.68;5.72;;;;;;;13.02;80.80;99838.44;1781954;80;27526;-61
2021/09/25 01:54:47;;;;;;;16.62;6.22;;;;;;;13.02;81.28;99840.58;1781841;80;27293;-61
2021/09/25 01:57:13;;;;;;;20.88;5.58;;;;;;;13.03;81.17;99850.90;1781904;80;25575;-62
2021/09/25 01:59:40;;;;;;;15.53;6.60;;;;;;;13.05;81.03;99852.70;1781898;79;25366;-62
2021/09/25 02:02:08;;;;;;;13.05;5.67;;;;;;;13.06;81.36;99843.45;1781990;79;25378;-62
2021/09/25 02:04:37;;;;;;;13.60;5.50;;;;;;;13.08;81.26;99839.82;1781937;80;27577;-62
2021/09/25 02:07:05;;;;;;;22.40;6.10;;;;;;;13.11;81.12;99843.77;1782034;79;32495;-62
2021/09/25 02:09:32;;;;;;;20.27;5.45;;;;;;;13.11;81.54;99836.44;1774854;80;25444;-61
2021/09/25 02:11:58;;;;;;;19.60;5.05;;;;;;;13.12;81.54;99826.36;1773683;80;25374;-61
2021/09/25 02:14:25;;;;;;;16.85;5.60;;;;;;;13.13;81.43;99834.17;1775542;80;25427;-61
2021/09/25 02:16:51;;;;;;;14.83;5.87;;;;;;;13.15;81.60;99828.41;1772418;80;27555;-62
2021/09/25 02:19:18;;;;;;;18.10;5.58;;;;;;;13.17;81.62;99828.28;1772372;80;27498;-62
2021/09/25 02:21:44;;;;;;;16.77;5.92;;;;;;;13.19;81.70;99829.31;1772760;80;25526;-63
2021/09/25 02:24:10;;;;;;;15.90;6.25;;;;;;;13.20;82.04;99825.47;1772077;80;25371;-62
2021/09/25 02:26:37;;;;;;;13.83;5.67;;;;;;;13.21;82.01;99832.47;1772027;80;25515;-62
2021/09/25 02:29:03;;;;;;;16.67;5.60;;;;;;;13.21;82.39;99829.22;1775965;79;27469;-62
2021/09/25 02:31:31;;;;;;;13.05;5.83;;;;;;;13.22;82.09;99831.36;1773574;80;25358;-62
2021/09/25 02:33:57;;;;;;;9.98;4.80;;;;;;;13.22;82.05;99823.98;1772071;80;25453;-62
2021/09/25 02:36:24;;;;;;;14.25;5.85;;;;;;;13.23;82.36;99824.80;1777087;80;25550;-62
2021/09/25 02:38:50;;;;;;;11.93;5.72;;;;;;;13.23;82.28;99829.66;1772792;80;25555;-62
2021/09/25 02:41:16;;;;;;;13.70;5.72;;;;;;;13.23;82.64;99822.09;1773441;79;26806;-62
2021/09/25 02:43:43;;;;;;;13.22;5.12;;;;;;;13.25;82.73;99818.46;1773202;80;25533;-62
2021/09/25 02:46:10;;;;;;;10.63;5.40;;;;;;;13.24;82.72;99820.36;1772160;80;25410;-62
2021/09/25 02:48:36;;;;;;;15.30;5.53;;;;;;;13.28;82.88;99815.08;1772532;80;25419;-62
2021/09/25 02:51:03;;;;;;;13.53;5.12;;;;;;;13.29;82.73;99809.07;1777787;80;25601;-60
2021/09/25 02:53:29;;;;;;;14.05;5.92;;;;;;;13.31;82.80;99813.02;1772796;79;27457;-62
2021/09/25 02:55:58;;;;;;;11.12;5.45;;;;;;;13.32;83.48;99810.57;1772119;80;25415;-62
2021/09/25 02:58:24;;;;;;;10.98;5.58;;;;;;;13.36;83.29;99807.39;1772064;80;25517;-62
2021/09/25 03:00:51;;;;;;;14.20;5.53;;;;;;;13.39;83.77;99818.16;1772642;80;27311;-61
2021/09/25 03:03:17;;;;;;;16.02;5.62;;;;;;;13.41;83.63;99818.03;1777606;80;25389;-61
2021/09/25 03:05:43;;;;;;;10.90;5.65;;;;;;;13.45;83.42;99808.66;1762671;80;29782;-61
2021/09/25 03:08:09;;;;;;;14.63;6.22;;;;;;;13.48;83.51;99807.95;1763320;80;26113;-61
2021/09/25 03:10:36;;;;;;;11.03;6.10;;;;;;;13.52;83.79;99808.06;1777031;79;25379;-61
2021/09/25 03:13:02;;;;;;;11.90;5.22;;;;;;;13.55;83.72;99810.92;1774129;79;25892;-61
2021/09/25 03:15:30;;;;;;;13.13;5.60;;;;;;;13.59;84.17;99815.89;1773147;79;25420;-61
2021/09/25 03:17:56;;;;;;;17.70;7.20;;;;;;;13.61;83.55;99810.12;1774167;80;27541;-61
2021/09/25 03:20:23;;;;;;;12.68;5.17;;;;;;;13.65;83.76;99808.29;1773023;80;25543;-61
2021/09/25 03:22:50;;;;;;;8.85;5.62;;;;;;;13.67;83.52;99803.30;1773401;80;25542;-61
2021/09/25 03:25:16;;;;;;;12.15;5.67;;;;;;;13.69;83.40;99801.60;1758699;80;25987;-61
2021/09/25 03:27:44;;;;;;;13.75;6.20;;;;;;;13.72;83.51;99806.36;1772908;80;25599;-61
2021/09/25 03:30:13;;;;;;;12.82;6.37;;;;;;;13.74;83.29;99800.01;1773212;80;28035;-61
2021/09/25 03:32:39;;;;;;;10.13;5.58;;;;;;;13.76;83.28;99798.55;1772934;80;25752;-61
2021/09/25 03:35:07;;;;;;;13.15;5.85;;;;;;;13.78;83.69;99798.20;1773267;80;25577;-61
2021/09/25 03:37:34;;;;;;;14.23;6.40;;;;;;;13.79;83.93;99802.49;1773198;79;25629;-61
2021/09/25 03:40:01;;;;;;;14.40;6.60;;;;;;;13.80;83.34;99806.81;1773716;80;25441;-61
2021/09/25 03:42:27;;;;;;;12.70;7.03;;;;;;;13.82;83.42;99811.33;1773701;80;27521;-61
2021/09/25 03:44:54;;;;;;;10.48;6.62;;;;;;;13.83;83.34;99815.06;1773375;80;25504;-61
2021/09/25 03:47:20;;;;;;;10.90;6.00;;;;;;;13.86;83.42;99815.52;1773428;79;25528;-61
2021/09/25 03:49:47;;;;;;;10.63;5.97;;;;;;;13.88;83.49;99824.14;1772752;80;25445;-61
2021/09/25 03:52:13;;;;;;;9.90;5.80;;;;;;;13.89;83.47;99816.97;1773157;80;25464;-61
2021/09/25 03:54:40;;;;;;;10.35;6.10;;;;;;;13.91;83.38;99825.60;1773549;80;27455;-61
2021/09/25 03:57:07;;;;;;;11.68;6.90;;;;;;;13.93;83.44;99825.27;1773580;79;25608;-61
2021/09/25 03:59:33;;;;;;;11.43;6.80;;;;;;;13.96;83.49;99827.27;1773978;79;25546;-61
2021/09/25 04:02:00;;;;;;;14.60;6.42;;;;;;;13.98;83.51;99835.33;1758439;80;25651;-61
2021/09/25 04:04:27;;;;;;;10.38;6.10;;;;;;;14.01;83.44;99836.55;1773240;80;25537;-61
2021/09/25 04:06:53;;;;;;;11.70;6.83;;;;;;;14.03;83.37;99832.95;1772925;79;27622;-61
2021/09/25 04:09:20;;;;;;;15.75;6.95;;;;;;;14.07;83.42;99833.05;1772372;80;25755;-62
2021/09/25 04:11:51;;;;;;;14.07;7.30;;;;;;;14.09;83.53;99827.47;1773850;80;25513;-61
2021/09/25 04:14:18;;;;;;;10.40;6.33;;;;;;;14.11;83.40;99817.62;1772935;80;25546;-61
2021/09/25 04:16:45;;;;;;;10.05;7.33;;;;;;;14.14;83.32;99819.66;1775169;80;25374;-61
2021/09/25 04:19:11;;;;;;;14.35;7.20;;;;;;;14.15;83.30;99828.83;1767908;80;27672;-61
2021/09/25 04:21:38;;;;;;;16.17;7.80;;;;;;;14.18;83.29;99832.23;1771239;80;25362;-61
2021/09/25 04:24:05;;;;;;;12.15;7.28;;;;;;;14.20;83.26;99829.95;1771143;80;25559;-61
2021/09/25 04:26:32;;;;;;;15.13;7.70;;;;;;;14.22;83.15;99833.69;1774500;80;25460;-61
2021/09/25 04:28:58;;;;;;;12.03;8.03;;;;;;;14.26;83.13;99836.51;1760264;81;25566;-61
2021/09/25 04:31:26;;;;;;;12.73;7.85;;;;;;;14.27;83.14;99831.27;1771747;80;27726;-61
2021/09/25 04:33:52;;;;;;;16.75;8.08;;;;;;;14.28;83.16;99836.38;1773762;80;25532;-61
2021/09/25 04:36:19;;;;;;;13.30;8.43;;;;;;;14.30;83.07;99845.00;1771328;80;25477;-61
2021/09/25 04:38:46;;;;;;;16.07;8.83;;;;;;;14.32;83.26;99840.00;1775886;80;25641;-61
2021/09/25 04:41:13;;;;;;;11.48;8.80;;;;;;;14.35;83.30;99839.87;1772814;79;25417;-61
2021/09/25 04:43:40;;;;;;;14.50;8.58;;;;;;;14.37;83.23;99851.22;1774358;80;27462;-61
2021/09/25 04:46:06;;;;;;;12.13;8.40;;;;;;;14.38;83.36;99845.41;1774036;80;25388;-62
2021/09/25 04:48:33;;;;;;;12.82;7.95;;;;;;;14.41;83.09;99848.59;1724050;80;25490;-62
2021/09/25 04:50:59;;;;;;;12.82;8.80;;;;;;;14.44;83.08;99847.87;1759433;80;25687;-61
2021/09/25 04:53:26;;;;;;;16.02;8.98;;;;;;;14.44;83.24;99852.77;1775641;80;25598;-61
2021/09/25 04:55:52;;;;;;;13.28;8.65;;;;;;;14.47;83.16;99859.44;1773612;80;27412;-63
2021/09/25 04:58:27;;;;;;;15.05;8.48;;;;;;;14.48;83.03;99851.52;1761626;80;25513;-61
2021/09/25 05:00:49;;;;;;;14.93;8.18;;;;;;;14.50;82.95;99851.95;1778715;80;25534;-61
2021/09/25 05:03:15;;;;;;;14.55;8.38;;;;;;;14.51;82.91;99858.41;1776312;80;26204;-62
2021/09/25 05:05:42;;;;;;;13.75;8.35;;;;;;;14.53;82.88;99858.86;1771357;80;25594;-62
2021/09/25 05:08:08;;;;;;;13.95;9.03;;;;;;;14.56;82.90;99859.53;1771199;80;29674;-62
2021/09/25 05:10:34;;;;;;;17.15;8.73;;;;;;;14.57;82.86;99865.75;1771692;80;25451;-61
2021/09/25 05:13:01;;;;;;;14.63;9.30;;;;;;;14.59;82.97;99857.27;1774292;79;25472;-61
2021/09/25 05:15:27;;;;;;;13.35;9.08;;;;;;;14.61;82.89;99863.97;1771308;80;25514;-61
2021/09/25 05:17:54;;;;;;;15.15;8.80;;;;;;;14.62;82.94;99857.95;1771236;81;25620;-61
2021/09/25 05:20:20;;;;;;;16.67;9.68;;;;;;;14.64;82.86;99861.11;1771211;81;29681;-62
2021/09/25 05:22:47;;;;;;;12.90;8.80;;;;;;;14.66;83.04;99854.74;1771136;81;25759;-61
2021/09/25 05:25:14;;;;;;;14.73;8.95;;;;;;;14.69;82.96;99860.86;1773573;80;25559;-61
2021/09/25 05:27:42;;;;;;;15.72;9.33;;;;;;;14.72;82.93;99861.53;1775423;79;26277;-62
2021/09/25 05:30:11;;;;;;;14.58;9.05;;;;;;;14.75;82.93;99863.56;1771213;80;25583;-62
2021/09/25 05:32:40;;;;;;;18.55;9.83;;;;;;;14.80;82.92;99869.34;1774823;80;28046;-62
2021/09/25 05:35:08;;;;;;;14.45;8.90;;;;;;;14.83;82.92;99855.01;1771157;80;25577;-61
2021/09/25 05:37:36;;;;;;;16.52;9.80;;;;;;;14.87;82.97;99870.89;1760447;81;25418;-61
2021/09/25 05:40:05;;;;;;;14.93;9.90;;;;;;;14.90;82.82;99864.75;1772634;80;25593;-62
2021/09/25 05:42:31;;;;;;;18.75;8.95;;;;;;;14.94;82.83;99858.81;1768252;80;25574;-62
2021/09/25 05:44:58;;;;;;;18.48;9.68;;;;;;;14.98;82.75;99868.44;1772955;80;28182;-62
2021/09/25 05:47:26;;;;;;;24.45;9.40;;;;;;;15.02;82.71;99863.90;1776438;79;26099;-62
2021/09/25 05:49:53;;;;;;;16.10;9.38;;;;;;;15.05;82.67;99861.27;1759808;80;25397;-62
2021/09/25 05:52:20;;;;;;;17.80;10.10;;;;;;;15.08;82.66;99872.80;1773803;80;25611;-62
2021/09/25 05:54:48;;;;;;;16.73;10.00;;;;;;;15.12;82.49;99871.55;1762656;80;25408;-62
2021/09/25 05:57:15;;;;;;;15.25;10.20;;;;;;;15.13;82.42;99878.56;1778254;80;28173;-63
2021/09/25 05:59:42;;;;;;;14.45;9.95;;;;;;;15.15;82.50;99871.41;1774469;80;25606;-62
2021/09/25 06:02:09;;;;;;;16.00;9.48;;;;;;;15.17;82.50;99874.57;1771853;80;25468;-62
2021/09/25 06:04:36;;;;;;;17.42;9.73;;;;;;;15.21;82.55;99874.11;1771795;79;25621;-62
2021/09/25 06:07:11;;;;;;;21.62;9.70;;;;;;;15.22;82.42;99875.12;1730336;82;25665;-62
2021/09/25 06:09:38;;;;;;;14.55;9.03;;;;;;;15.23;82.22;99873.96;1679966;84;29608;-63
2021/09/25 06:12:26;;;;;;;15.60;9.18;;;;;;;15.25;82.31;99879.06;1705911;82;27431;-63
2021/09/25 06:14:53;;;;;;;17.10;10.45;;;;;;;15.24;82.14;99893.27;1680757;85;25572;-62
2021/09/25 06:17:21;;;;;;;20.62;10.03;;;;;;;15.25;82.21;99879.06;1678128;85;25549;-63
2021/09/25 06:19:48;;;;;;;15.70;10.28;;;;;;;15.25;82.13;99887.23;1678288;85;25583;-62
2021/09/25 06:22:15;;;;;;;19.87;10.68;;;;;;;15.24;82.16;99878.86;1678306;85;28177;-62
2021/09/25 06:24:42;;;;;;;14.20;9.88;;;;;;;15.24;82.23;99888.40;1676242;85;25421;-62
2021/09/25 06:27:08;;;;;;;17.05;10.25;;;;;;;15.25;82.23;99881.79;1650982;85;25708;-62
2021/09/25 06:29:35;;;;;;;16.00;9.98;;;;;;;15.26;82.37;99890.98;1662167;85;25738;-63
2021/09/25 06:32:04;;;;;;;15.75;9.88;;;;;;;15.26;82.21;99895.06;1670355;85;25816;-61
2021/09/25 06:34:30;;;;;;;20.27;10.98;;;;;;;15.25;82.40;99887.23;1672515;85;27502;-61
2021/09/25 06:36:57;;;;;;;16.75;10.15;;;;;;;15.25;82.33;99887.23;1669824;85;26499;-62
2021/09/25 06:39:24;;;;;;;16.57;10.00;;;;;;;15.26;82.46;99888.25;1667045;85;25695;-62
2021/09/25 06:41:51;;;;;;;18.10;10.88;;;;;;;15.28;82.46;99890.63;1671342;85;25706;-61
2021/09/25 06:44:17;;;;;;;22.02;11.18;;;;;;;15.30;82.49;99888.34;1669602;85;25428;-61
2021/09/25 06:46:44;;;;;;;19.82;10.82;;;;;;;15.32;82.53;99894.22;1670632;85;27489;-61
2021/09/25 06:49:10;;;;;;;18.37;11.10;;;;;;;15.35;82.53;99889.44;1670395;85;25611;-62
2021/09/25 06:51:36;;;;;;;15.25;10.50;;;;;;;15.38;82.53;99891.47;1695935;81;25807;-61
2021/09/25 06:54:03;;;;;;;21.70;11.12;;;;;;;15.41;82.56;99895.41;1735004;81;25558;-61
2021/09/25 06:56:30;;;;;;;17.07;10.93;;;;;;;15.45;82.58;99896.31;1737104;80;25870;-62
2021/09/25 06:58:56;;;;;;;20.60;10.80;;;;;;;15.47;82.54;99897.53;1758828;81;27633;-61
2021/09/25 07:01:23;;;;;;;17.30;11.22;;;;;;;15.52;82.66;99898.42;1755754;81;25379;-61
2021/09/25 07:03:49;;;;;;;14.70;10.65;;;;;;;15.54;82.49;99896.13;1740308;81;25429;-61
2021/09/25 07:06:16;;;;;;;18.35;11.03;;;;;;;15.55;82.50;99899.09;1742198;81;27685;-61
2021/09/25 07:08:42;;;;;;;17.37;11.40;;;;;;;15.57;82.53;99897.58;1748448;81;26353;-62
2021/09/25 07:11:09;;;;;;;18.48;11.97;;;;;;;15.61;82.42;99901.75;1749156;81;27531;-62
2021/09/25 07:13:37;;;;;;;16.52;11.22;;;;;;;15.64;82.57;99904.56;1747179;80;25583;-62
2021/09/25 07:16:05;;;;;;;17.37;11.50;;;;;;;15.68;82.44;99910.09;1745725;81;25673;-62
2021/09/25 07:18:31;;;;;;;20.92;13.18;;;;;;;15.71;82.45;99908.62;1738625;80;26046;-62
2021/09/25 07:20:58;;;;;;;22.87;13.28;;;;;;;15.74;82.43;99910.64;1741355;81;25742;-62
2021/09/25 07:23:26;;;;;;;22.42;14.68;;;;;;;15.74;82.71;99917.45;1721651;81;27225;-62
2021/09/25 07:25:53;;;;;;;20.05;13.22;;;;;;;15.73;82.59;99911.19;1743922;81;25434;-62
2021/09/25 07:28:20;;;;;;;25.43;14.90;;;;;;;15.72;82.76;99913.72;1738432;81;26544;-62
2021/09/25 07:30:48;;;;;;;23.12;14.10;;;;;;;15.71;82.95;99913.48;1743447;81;26163;-63
2021/09/25 07:33:16;;;;;;;22.70;14.43;;;;;;;15.67;82.98;99920.22;1744273;81;25771;-62
2021/09/25 07:35:44;;;;;;;25.68;15.00;;;;;;;15.65;83.38;99917.06;1740271;81;27525;-61
2021/09/25 07:38:11;;;;;;;22.27;14.60;;;;;;;15.63;83.33;99926.17;1743571;81;25654;-61
2021/09/25 07:40:38;;;;;;;24.15;15.23;;;;;;;15.62;83.47;99923.21;1744562;81;25737;-62
2021/09/25 07:43:05;;;;;;;28.30;16.23;;;;;;;15.64;83.69;99920.14;1745424;81;25725;-62
2021/09/25 07:45:32;;;;;;;26.42;14.55;;;;;;;15.65;84.16;99925.82;1720839;81;25741;-62
2021/09/25 07:48:01;;;;;;;25.62;15.43;;;;;;;15.65;84.13;99923.88;1741728;81;27497;-65
2021/09/25 07:50:28;;;;;;;22.15;14.80;;;;;;;15.71;84.11;99926.34;1744221;81;25610;-65
2021/09/25 07:52:57;;;;;;;23.45;14.43;;;;;;;15.72;84.00;99924.63;1739192;81;25527;-65
2021/09/25 07:55:25;;;;;;;;;;;;;;;15.74;83.95;99926.42;1736752;82;25534;-66
2021/09/25 07:57:53;;;;;;;24.92;15.35;;;;;;;15.78;83.98;99925.98;1734277;82;25552;-63
2021/09/25 08:00:21;;;;;;;24.30;15.25;;;;;;;15.81;83.93;99940.25;1734165;81;27539;-64
2021/09/25 08:02:47;;;;;;;22.15;15.25;;;;;;;15.81;83.91;99942.98;1753087;81;25527;-64
2021/09/25 08:05:16;;;;;;;25.25;15.32;;;;;;;15.83;83.93;99937.17;1761970;81;25646;-64
2021/09/25 08:07:42;;;;;;;24.70;15.20;;;;;;;15.88;84.13;99942.36;1762588;80;25656;-63
2021/09/25 08:10:13;;;;;;;22.42;15.98;;;;;;;15.90;84.18;99950.19;1724668;81;25654;-63
2021/09/25 08:12:40;;;;;;;24.30;16.82;;;;;;;15.89;84.21;99945.32;1701557;82;28004;-62
2021/09/25 08:15:10;;;;;;;21.20;15.23;;;;;;;15.91;84.12;99947.70;1741640;80;25726;-62
2021/09/25 08:17:36;;;;;;;25.27;15.78;;;;;;;15.91;84.15;99952.56;1748016;80;26003;-64
2021/09/25 08:20:06;;;;;;;25.45;16.80;;;;;;;15.92;84.25;99947.34;1748890;80;25551;-62
2021/09/25 08:22:34;;;;;;;30.05;16.62;;;;;;;15.98;84.48;99943.77;1773481;80;25645;-62
2021/09/25 08:25:01;;;;;;;25.80;15.98;;;;;;;16.00;84.46;99948.29;1772903;80;28127;-62
2021/09/25 08:27:27;;;;;;;26.27;16.45;;;;;;;16.02;84.63;99959.08;1747707;80;25627;-63
2021/09/25 08:29:54;;;;;;;26.35;16.40;;;;;;;16.03;84.70;99951.09;1773509;80;25564;-63
2021/09/25 08:32:20;;;;;;;27.00;17.30;;;;;;;16.05;84.58;99956.98;1773573;80;25517;-63
2021/09/25 08:34:47;;;;;;;26.25;18.00;;;;;;;16.08;84.74;99957.45;1773542;80;25384;-62
2021/09/25 08:37:15;;;;;;;27.25;16.87;;;;;;;16.09;84.90;99961.19;1773646;80;27456;-63
2021/09/25 08:39:43;;;;;;;25.80;18.37;;;;;;;16.11;84.89;99962.20;1773434;80;26034;-64
2021/09/25 08:42:15;;;;;;;29.00;17.50;;;;;;;16.13;84.83;99956.59;1773385;80;25489;-63
2021/09/25 08:44:44;;;;;;;25.92;16.62;;;;;;;16.16;84.79;99964.08;1739756;80;25606;-62
2021/09/25 08:47:11;;;;;;;25.77;16.95;;;;;;;16.17;84.77;99953.94;1729787;83;25596;-61
2021/09/25 08:49:37;;;;;;;23.32;16.55;;;;;;;16.19;84.54;99961.20;1741088;79;28154;-62
2021/09/25 08:52:05;;;;;;;25.80;15.48;;;;;;;16.20;84.57;99960.06;1742919;80;25919;-63
2021/09/25 08:54:32;;;;;;;20.80;15.75;;;;;;;16.22;84.42;99964.00;1731879;81;25615;-62
2021/09/25 08:56:59;;;;;;;23.00;15.90;;;;;;;16.23;84.36;99965.59;1698314;83;25639;-63
2021/09/25 08:59:25;;;;;;;27.50;16.70;;;;;;;16.25;84.32;99961.16;1706338;83;26039;-63
2021/09/25 09:01:53;;;;;;;21.97;14.87;;;;;;;16.25;84.41;99956.47;1728818;82;28202;-62
2021/09/25 09:04:20;;;;;;;20.75;15.48;;;;;;;16.28;84.51;99964.55;1729330;82;25429;-63
2021/09/25 09:06:49;;;;;;;26.05;16.25;;;;;;;16.30;84.42;99971.02;1705200;83;26324;-63
2021/09/25 09:09:17;;;;;;;23.13;15.60;;;;;;;16.32;84.41;99959.16;1728489;83;25971;-65
2021/09/25 09:11:47;;;;;;;22.48;16.12;;;;;;;16.31;84.34;99962.47;1728549;83;25704;-63
2021/09/25 09:14:16;;;;;;;24.90;16.12;;;;;;;16.40;84.66;99970.46;1728844;82;27501;-63
2021/09/25 09:16:56;;;;;;;25.02;16.62;;;;;;;16.45;84.55;99961.99;1740444;82;25595;-63
2021/09/25 09:19:22;;;;;;;;;;;;;;;16.48;84.45;99961.28;1745551;82;25355;-65
2021/09/25 09:21:50;;;;;;;28.50;16.10;;;;;;;16.60;84.87;99965.25;1742872;82;25572;-63
2021/09/25 09:24:17;;;;;;;25.52;16.05;;;;;;;16.72;84.71;99968.98;1743040;82;25383;-62
2021/09/25 09:26:45;;;;;;;21.65;15.28;;;;;;;16.83;84.53;99963.75;1742983;82;27764;-62
2021/09/25 09:29:12;;;;;;;22.50;16.02;;;;;;;16.95;84.35;99969.87;1742937;82;25383;-62
2021/09/25 09:31:39;;;;;;;26.33;15.85;;;;;;;17.06;84.01;99971.48;1743079;82;25552;-62
2021/09/25 09:34:08;;;;;;;21.97;15.38;;;;;;;17.10;83.35;99964.13;1742956;82;25383;-61
2021/09/25 09:36:41;;;;;;;23.40;15.98;;;;;;;17.14;83.53;99971.80;1743108;82;25588;-61
2021/09/25 09:39:20;;;;;;;21.85;14.68;;;;;;;17.20;83.08;99978.34;1742958;82;27450;-65
2021/09/25 09:41:51;;;;;;;19.42;14.87;;;;;;;17.21;82.82;99972.52;1742894;82;25808;-63
2021/09/25 09:44:31;;;;;;;19.27;13.30;;;;;;;17.21;82.84;99962.17;1721219;81;25587;-66
2021/09/25 09:47:01;;;;;;;18.02;14.10;;;;;;;17.26;83.19;99965.39;1743305;82;27731;-64
2021/09/25 09:49:32;;;;;;;18.62;13.98;;;;;;;17.33;82.95;99977.84;1742976;82;25586;-64
2021/09/25 09:52:10;;;;;;;21.68;15.58;;;;;;;17.34;82.78;99989.56;1721834;82;28295;-63
2021/09/25 09:54:39;;;;;;;22.35;15.53;;;;;;;17.31;82.42;99984.81;1742867;82;25770;-64
2021/09/25 09:57:19;;;;;;;;;;;;;;;17.26;82.64;99988.63;1745538;81;25565;-64
2021/09/25 09:59:46;;;;;;;20.57;14.60;;;;;;;17.24;82.65;99987.42;1742767;81;25612;-64
2021/09/25 10:02:13;;;;;;;19.10;14.25;;;;;;;17.23;82.71;99987.19;1743096;82;25387;-64
2021/09/25 10:04:41;;;;;;;20.65;13.83;;;;;;;17.23;82.88;99989.92;1742826;82;28146;-64
2021/09/25 10:07:10;;;;;;;20.62;14.70;;;;;;;17.26;82.96;99994.09;1742775;82;25533;-64
2021/09/25 10:09:40;;;;;;;19.15;14.68;;;;;;;17.25;82.80;99989.80;1742897;82;25560;-64
2021/09/25 10:12:14;;;;;;;21.55;15.65;;;;;;;17.22;82.51;99988.36;1743028;82;25573;-64
2021/09/25 10:14:49;;;;;;;20.85;14.78;;;;;;;17.22;82.61;99996.56;1741410;82;25466;-65
2021/09/25 10:17:16;;;;;;;21.62;14.53;;;;;;;17.21;82.75;99990.28;1738079;82;28163;-64
2021/09/25 10:19:44;;;;;;;21.90;14.45;;;;;;;17.20;82.62;99990.64;1739643;82;32727;-62
2021/09/25 10:22:30;;;;;;;20.45;14.65;;;;;;;17.23;82.85;100000.30;1716260;82;25717;-64
2021/09/25 10:25:03;;;;;;;21.40;14.43;;;;;;;17.22;82.68;99991.88;1739465;82;25663;-62
2021/09/25 10:27:34;;;;;;;20.77;15.15;;;;;;;17.24;82.77;99986.83;1739368;82;25407;-63
2021/09/25 10:30:04;;;;;;;23.12;14.38;;;;;;;17.32;82.92;99993.24;1739990;81;27151;-64
2021/09/25 10:32:37;;;;;;;20.02;14.25;;;;;;;17.41;83.12;99986.17;1739403;82;25587;-64
2021/09/25 10:35:09;;;;;;;17.25;13.88;;;;;;;17.50;82.77;99990.82;1739449;82;25383;-63
2021/09/25 10:37:53;;;;;;;17.37;12.25;;;;;;;17.60;82.81;99986.12;1739384;82;25504;-64
2021/09/25 10:40:23;;;;;;;14.68;11.75;;;;;;;17.72;82.56;99998.27;1739580;81;25600;-62
2021/09/25 10:43:21;;;;;;;17.35;13.30;;;;;;;17.84;82.56;100002.77;1739415;82;27566;-62
2021/09/25 10:45:51;;;;;;;17.57;13.15;;;;;;;17.93;81.96;99994.34;1739428;82;25517;-64
2021/09/25 10:48:23;;;;;;;14.78;12.47;;;;;;;18.03;81.83;99996.46;1739392;81;25547;-64
2021/09/25 10:51:09;;;;;;;15.65;12.80;;;;;;;18.17;81.83;99994.52;1739272;82;25613;-63
2021/09/25 10:53:39;;;;;;;15.65;11.83;;;;;;;18.27;81.34;99995.27;1739293;82;25417;-64
2021/09/25 10:56:26;;;;;;;20.55;14.70;;;;;;;18.34;80.40;99995.14;1739420;82;27448;-64
2021/09/25 10:59:06;;;;;;;15.58;11.75;;;;;;;18.39;79.87;99994.27;1739524;82;25446;-63
2021/09/25 11:01:41;;;;;;;16.50;12.13;;;;;;;18.46;80.12;99994.95;1739591;82;25447;-64
2021/09/25 11:04:18;;;;;;;17.70;12.25;;;;;;;18.52;79.95;99990.72;1739421;82;25458;-64
2021/09/25 11:06:57;;;;;;;15.98;12.15;;;;;;;18.53;79.36;99994.27;1738617;81;25548;-64
2021/09/25 11:09:41;;;;;;;15.38;11.88;;;;;;;18.54;79.47;99987.05;1739621;81;27474;-63
2021/09/25 11:12:11;;;;;;;14.90;12.20;;;;;;;18.53;79.03;99996.41;1717403;83;25581;-57
2021/09/25 11:14:53;;;;;;;18.20;13.03;;;;;;;18.48;79.18;100000.25;1717397;83;25639;-59
2021/09/25 11:17:26;;;;;;;13.58;11.70;;;;;;;18.45;78.68;99987.30;1717058;83;25591;-59
2021/09/25 11:20:01;;;;;;;15.05;11.80;;;;;;;18.42;78.76;99995.46;1730221;82;25443;-59
2021/09/25 11:22:47;;;;;;;16.40;11.25;;;;;;;18.44;78.68;100000.80;1729962;82;27796;-59
2021/09/25 11:25:17;;;;;;;18.48;10.90;;;;;;;18.46;78.53;99997.09;1729986;82;25562;-60
2021/09/25 11:27:47;;;;;;;16.10;11.28;;;;;;;18.51;78.82;100001.48;1730355;82;25465;-56
2021/09/25 11:30:23;;;;;;;12.85;11.05;;;;;;;18.56;78.43;100009.38;1730319;82;25649;-59